Time;durP1;ratioP1;P1;durP2;ratioP2;P2;SDS_P1;SDS_P2;PMS_P1;PMS_P2;Temp;Humidity;BMP_temperature;BMP_pressure;BME280_temperature;BME280_humidity;BME280_pressure;Samples;Min_cycle;Max_cycle;Signal;HPM_P1;HPM_P2
2023/03/10 00:02:23;;;;;;;4.43;2.15;;;;;;;-143.04;100.00;61139.28;5023216;28;20040;-82
2023/03/10 00:04:52;;;;;;;5.22;2.10;;;;;;;-143.04;100.00;61139.28;5020639;28;20052;-82
2023/03/10 00:07:18;;;;;;;4.65;2.10;;;;;;;-143.04;100.00;61139.28;5019991;28;20509;-82
2023/03/10 00:09:45;;;;;;;6.15;2.25;;;;;;;-143.04;100.00;61139.28;5019420;28;20132;-82
2023/03/10 00:12:11;;;;;;;3.33;1.60;;;;;;;-143.04;100.00;61139.28;5029193;28;20041;-82
2023/03/10 00:14:38;;;;;;;4.30;1.83;;;;;;;-143.04;100.00;61139.28;5029036;28;20424;-82
2023/03/10 00:17:03;;;;;;;3.75;1.95;;;;;;;-143.04;100.00;61139.28;5025943;28;20052;-82
2023/03/10 00:19:29;;;;;;;3.05;1.95;;;;;;;-143.04;100.00;61139.28;5020620;28;20033;-82
2023/03/10 00:21:54;;;;;;;5.82;2.00;;;;;;;-143.04;100.00;61139.28;5026147;28;20041;-82
2023/03/10 00:24:20;;;;;;;7.05;2.00;;;;;;;-143.04;100.00;61139.28;5025956;28;20044;-82
2023/03/10 00:26:49;;;;;;;5.05;1.95;;;;;;;-143.04;100.00;61139.28;5017659;28;20040;-82
2023/03/10 00:29:15;;;;;;;4.43;1.75;;;;;;;-143.04;100.00;61139.28;5022870;28;20488;-82
2023/03/10 00:31:41;;;;;;;6.05;2.03;;;;;;;-143.04;100.00;61139.28;5024743;28;20030;-82
2023/03/10 00:34:07;;;;;;;4.65;1.83;;;;;;;-143.04;100.00;61139.28;5024660;28;20780;-82
2023/03/10 00:36:33;;;;;;;5.55;2.10;;;;;;;-143.04;100.00;61139.28;5026526;28;20115;-82
2023/03/10 00:39:00;;;;;;;2.50;1.65;;;;;;;-143.04;100.00;61139.28;5024281;28;20049;-82
2023/03/10 00:41:32;;;;;;;5.78;2.10;;;;;;;-143.04;100.00;61139.28;5023504;28;20557;-82
2023/03/10 00:43:59;;;;;;;4.32;1.88;;;;;;;-143.04;100.00;61139.28;5021873;28;20570;-82
2023/03/10 00:46:26;;;;;;;6.13;1.77;;;;;;;-143.04;100.00;61139.28;5023501;28;20073;-82
2023/03/10 00:48:52;;;;;;;5.05;2.33;;;;;;;-143.04;100.00;61139.28;5024117;28;20029;-82
2023/03/10 00:51:19;;;;;;;4.93;2.10;;;;;;;-143.04;100.00;61139.28;5022444;28;20048;-82
2023/03/10 00:53:46;;;;;;;3.58;1.58;;;;;;;-143.04;100.00;61139.28;5021117;28;20088;-82
2023/03/10 00:56:15;;;;;;;7.35;2.90;;;;;;;-143.04;100.00;61139.28;5023168;28;20493;-82
2023/03/10 00:58:42;;;;;;;4.57;1.70;;;;;;;-143.04;100.00;61139.28;5022089;28;20172;-82
2023/03/10 01:01:23;;;;;;;5.40;1.65;;;;;;;-143.04;100.00;61139.28;5014806;28;20056;-82
2023/03/10 01:03:55;;;;;;;5.50;2.00;;;;;;;-143.04;100.00;61139.28;5019393;28;20134;-82
2023/03/10 01:06:22;;;;;;;4.78;2.00;;;;;;;-143.04;100.00;61139.28;5018082;28;20483;-82
2023/03/10 01:08:48;;;;;;;3.83;1.83;;;;;;;-143.04;100.00;61139.28;5027201;28;20034;-82
2023/03/10 01:11:20;;;;;;;4.10;2.10;;;;;;;-143.04;100.00;61139.28;5040865;28;20033;-82
2023/03/10 01:13:46;;;;;;;5.63;1.67;;;;;;;-143.04;100.00;61139.28;5026899;28;20362;-82
2023/03/10 01:16:12;;;;;;;2.75;1.52;;;;;;;-143.04;100.00;61139.28;5026095;28;20472;-82
2023/03/10 01:18:38;;;;;;;4.38;1.50;;;;;;;-143.04;100.00;61139.28;5024012;28;20137;-82
2023/03/10 01:21:05;;;;;;;4.43;2.13;;;;;;;-143.04;100.00;61139.28;5029661;28;20103;-82
2023/03/10 01:23:30;;;;;;;4.72;1.85;;;;;;;-143.04;100.00;61139.28;5029566;28;20119;-82
2023/03/10 01:25:56;;;;;;;4.03;2.10;;;;;;;-143.04;100.00;61139.28;5030509;28;20095;-82
2023/03/10 01:28:21;;;;;;;4.55;1.88;;;;;;;-143.04;100.00;61139.28;5028703;28;20119;-81
2023/03/10 01:30:48;;;;;;;4.35;1.77;;;;;;;-143.04;100.00;61139.28;5025674;28;20034;-82
2023/03/10 01:33:16;;;;;;;3.33;1.90;;;;;;;-143.04;100.00;61139.28;5041908;28;20224;-82
2023/03/10 01:35:42;;;;;;;4.18;1.77;;;;;;;-143.04;100.00;61139.28;5029409;28;20029;-82
2023/03/10 01:38:09;;;;;;;3.22;1.63;;;;;;;-143.04;100.00;61139.28;5020382;28;20042;-82
2023/03/10 01:40:37;;;;;;;5.00;1.85;;;;;;;-143.04;100.00;61139.28;5025256;28;20029;-82
2023/03/10 01:43:26;;;;;;;2.60;1.70;;;;;;;-143.04;100.00;61139.28;5026846;28;20033;-82
2023/03/10 01:45:52;;;;;;;3.65;1.70;;;;;;;-143.04;100.00;61139.28;5026677;28;20159;-81
2023/03/10 01:48:20;;;;;;;7.07;1.67;;;;;;;-143.04;100.00;61139.28;5037576;28;20124;-82
2023/03/10 01:50:52;;;;;;;5.18;1.67;;;;;;;-143.04;100.00;61139.28;5027653;28;20057;-82
2023/03/10 01:53:19;;;;;;;9.35;1.90;;;;;;;-143.04;100.00;61139.28;5025203;28;20037;-82
2023/03/10 01:55:54;;;;;;;3.78;1.50;;;;;;;-143.04;100.00;61139.28;5026269;28;20037;-82
2023/03/10 01:58:25;;;;;;;5.57;2.40;;;;;;;-143.04;100.00;61139.28;5022916;28;20049;-81
2023/03/10 02:00:53;;;;;;;5.32;2.00;;;;;;;-143.04;100.00;61139.28;5022665;28;20394;-82
2023/03/10 02:03:36;;;;;;;3.80;2.67;;;;;;;-143.04;100.00;61139.28;5022289;28;20042;-82
2023/03/10 02:06:13;;;;;;;5.20;1.70;;;;;;;-143.04;100.00;61139.28;5027381;28;20048;-82
2023/03/10 02:08:46;;;;;;;3.33;1.65;;;;;;;-143.04;100.00;61139.28;5028370;28;20039;-82
2023/03/10 02:11:14;;;;;;;6.78;2.10;;;;;;;-143.04;100.00;61139.28;5030458;28;20041;-82
2023/03/10 02:13:39;;;;;;;3.88;1.67;;;;;;;-143.04;100.00;61139.28;5031244;28;20049;-82
2023/03/10 02:16:06;;;;;;;3.00;1.83;;;;;;;-143.04;100.00;61139.28;5028065;28;20037;-81
2023/03/10 02:18:32;;;;;;;5.28;2.28;;;;;;;-143.04;100.00;61139.28;5030338;28;20496;-82
2023/03/10 02:21:06;;;;;;;2.47;1.42;;;;;;;-143.04;100.00;61139.28;5024977;28;20481;-82
2023/03/10 02:23:43;;;;;;;2.85;1.80;;;;;;;-143.04;100.00;61139.28;5026130;28;20041;-82
2023/03/10 02:26:28;;;;;;;5.28;1.98;;;;;;;-143.04;100.00;61139.28;5024736;28;20589;-82
2023/03/10 02:28:58;;;;;;;4.93;1.73;;;;;;;-143.04;100.00;61139.28;5026168;28;20128;-82
2023/03/10 02:31:25;;;;;;;4.20;2.00;;;;;;;-143.04;100.00;61139.28;5025282;28;20038;-82
2023/03/10 02:33:51;;;;;;;2.75;1.60;;;;;;;-143.04;100.00;61139.28;5027237;28;20053;-81
2023/03/10 02:36:23;;;;;;;3.63;1.63;;;;;;;-143.04;100.00;61139.28;5027192;28;20124;-82
2023/03/10 02:38:49;;;;;;;5.07;1.88;;;;;;;-143.04;100.00;61139.28;5018047;28;20033;-82
2023/03/10 02:41:31;;;;;;;5.03;1.67;;;;;;;-143.04;100.00;61139.28;5020446;28;20040;-82
2023/03/10 02:43:59;;;;;;;6.60;1.88;;;;;;;-143.04;100.00;61139.28;5024103;28;20045;-82
2023/03/10 02:46:25;;;;;;;2.80;1.63;;;;;;;-143.04;100.00;61139.28;5024641;28;20044;-82
2023/03/10 02:48:51;;;;;;;6.28;1.85;;;;;;;-143.04;100.00;61139.28;5024682;28;20037;-82
2023/03/10 02:51:42;;;;;;;3.17;1.70;;;;;;;-143.04;100.00;61139.28;5025261;28;20512;-82
2023/03/10 02:54:09;;;;;;;4.32;1.90;;;;;;;-143.04;100.00;61139.28;5025152;28;20373;-82
2023/03/10 02:56:36;;;;;;;4.55;1.63;;;;;;;-143.04;100.00;61139.28;5018026;28;20034;-82
2023/03/10 02:59:05;;;;;;;5.75;1.90;;;;;;;-143.04;100.00;61139.28;5021547;28;20600;-82
2023/03/10 03:01:32;;;;;;;3.58;1.48;;;;;;;-143.04;100.00;61139.28;5016329;28;20072;-82
2023/03/10 03:03:59;;;;;;;5.63;1.60;;;;;;;-143.04;100.00;61139.28;5025250;28;20045;-81
2023/03/10 03:06:26;;;;;;;3.90;1.90;;;;;;;-143.04;100.00;61139.28;5026691;28;20083;-82
2023/03/10 03:08:51;;;;;;;4.93;1.65;;;;;;;-143.04;100.00;61139.28;5028652;28;20128;-82
2023/03/10 03:11:17;;;;;;;3.80;1.65;;;;;;;-143.04;100.00;61139.28;5028434;28;20129;-82
2023/03/10 03:13:42;;;;;;;4.05;1.70;;;;;;;-143.04;100.00;61139.28;5028236;28;20108;-82
2023/03/10 03:16:09;;;;;;;4.97;1.80;;;;;;;-143.04;100.00;61139.28;5027180;28;20029;-82
2023/03/10 03:18:35;;;;;;;2.78;1.75;;;;;;;-143.04;100.00;61139.28;5028687;28;20036;-82
2023/03/10 03:21:09;;;;;;;3.65;1.98;;;;;;;-143.04;100.00;61139.28;5025861;28;20057;-82
2023/03/10 03:23:37;;;;;;;2.78;1.75;;;;;;;-143.04;100.00;61139.28;5026355;28;20056;-82
2023/03/10 03:26:03;;;;;;;2.72;1.52;;;;;;;-143.04;100.00;61139.28;5025878;28;20566;-82
2023/03/10 03:28:29;;;;;;;4.47;1.90;;;;;;;-143.04;100.00;61139.28;5026797;28;20131;-82
2023/03/10 03:30:55;;;;;;;5.20;2.10;;;;;;;-143.04;100.00;61139.28;5024666;28;20045;-82
2023/03/10 03:33:20;;;;;;;3.92;1.80;;;;;;;-143.04;100.00;61139.28;5026529;28;20037;-82
2023/03/10 03:35:46;;;;;;;5.45;1.80;;;;;;;-143.04;100.00;61139.28;5025694;28;20029;-82
2023/03/10 03:38:11;;;;;;;3.95;1.90;;;;;;;-143.04;100.00;61139.28;5025453;28;20048;-81
2023/03/10 03:40:37;;;;;;;5.18;1.73;;;;;;;-143.04;100.00;61139.28;5025982;28;20033;-82
2023/03/10 03:43:03;;;;;;;3.72;2.00;;;;;;;-143.04;100.00;61139.28;5024644;28;20045;-82
2023/03/10 03:45:31;;;;;;;4.20;2.00;;;;;;;-143.04;100.00;61139.28;5024362;28;20041;-82
2023/03/10 03:47:57;;;;;;;3.35;1.70;;;;;;;-143.04;100.00;61139.28;5018876;28;20060;-81
2023/03/10 03:50:26;;;;;;;5.07;2.20;;;;;;;-143.04;100.00;61139.28;5023945;28;20401;-81
2023/03/10 03:52:52;;;;;;;5.63;2.17;;;;;;;-143.04;100.00;61139.28;5024470;28;20041;-82
2023/03/10 03:55:19;;;;;;;4.57;1.90;;;;;;;-143.04;100.00;61139.28;5022893;28;20060;-82
2023/03/10 03:57:45;;;;;;;3.42;1.80;;;;;;;-143.04;100.00;61139.28;5022906;28;20044;-81
2023/03/10 04:00:21;;;;;;;4.00;1.90;;;;;;;-143.04;100.00;61139.28;5017748;28;20073;-82
2023/03/10 04:02:47;;;;;;;4.60;1.92;;;;;;;-143.04;100.00;61139.28;5025543;28;20477;-82
2023/03/10 04:05:13;;;;;;;4.75;2.25;;;;;;;-143.04;100.00;61139.28;5019600;28;20072;-82
2023/03/10 04:07:41;;;;;;;4.80;2.20;;;;;;;-143.04;100.00;61139.28;5027201;28;20036;-82
2023/03/10 04:10:16;;;;;;;4.20;2.15;;;;;;;-143.04;100.00;61139.28;5025188;28;20041;-82
2023/03/10 04:12:41;;;;;;;4.88;2.08;;;;;;;-143.04;100.00;61139.28;5020238;28;20041;-82
2023/03/10 04:15:07;;;;;;;4.75;2.25;;;;;;;-143.04;100.00;61139.28;5027817;28;20041;-82
2023/03/10 04:17:33;;;;;;;7.28;2.20;;;;;;;-143.04;100.00;61139.28;5027358;28;20088;-82
2023/03/10 04:19:59;;;;;;;5.55;2.10;;;;;;;-143.04;100.00;61139.28;5026941;28;20044;-82
2023/03/10 04:22:24;;;;;;;5.97;1.90;;;;;;;-143.04;100.00;61139.28;5026307;28;20492;-81
2023/03/10 04:24:50;;;;;;;4.78;2.30;;;;;;;-143.04;100.00;61139.28;5024942;28;20033;-82
2023/03/10 04:27:15;;;;;;;4.95;2.20;;;;;;;-143.04;100.00;61139.28;5024750;28;20116;-82
2023/03/10 04:29:41;;;;;;;7.68;2.08;;;;;;;-143.04;100.00;61139.28;5025368;28;20030;-82
2023/03/10 04:32:06;;;;;;;2.47;2.00;;;;;;;-143.04;100.00;61139.28;5025685;28;20033;-82
2023/03/10 04:34:32;;;;;;;2.97;1.98;;;;;;;-143.04;100.00;61139.28;5023375;28;20112;-82
2023/03/10 04:36:58;;;;;;;7.07;2.45;;;;;;;-143.04;100.00;61139.28;5024944;28;20041;-82
2023/03/10 04:39:23;;;;;;;4.28;2.67;;;;;;;-143.04;100.00;61139.28;5025435;28;20479;-82
2023/03/10 04:41:49;;;;;;;3.45;2.10;;;;;;;-143.04;100.00;61139.28;5024163;28;20030;-82
2023/03/10 04:44:15;;;;;;;5.22;2.58;;;;;;;-143.04;100.00;61139.28;5022830;28;20096;-82
2023/03/10 04:46:40;;;;;;;4.85;1.95;;;;;;;-143.04;100.00;61139.28;5022945;28;20137;-82
2023/03/10 04:49:05;;;;;;;2.85;2.30;;;;;;;-143.04;100.00;61139.28;5014904;28;20045;-82
2023/03/10 04:51:31;;;;;;;3.70;1.85;;;;;;;-143.04;100.00;61139.28;5020392;28;20029;-82
2023/03/10 04:53:56;;;;;;;4.38;1.90;;;;;;;-143.04;100.00;61139.28;5022178;28;20065;-81
2023/03/10 04:56:23;;;;;;;3.97;2.03;;;;;;;-143.04;100.00;61139.28;5022049;28;20075;-82
2023/03/10 04:58:49;;;;;;;4.40;2.20;;;;;;;-143.04;100.00;61139.28;5015604;28;20045;-82
2023/03/10 05:01:15;;;;;;;4.15;2.30;;;;;;;-143.04;100.00;61139.28;5028657;28;20038;-82
2023/03/10 05:03:40;;;;;;;4.97;2.00;;;;;;;-143.04;100.00;61139.28;5026960;28;20037;-82
2023/03/10 05:06:17;;;;;;;3.10;2.13;;;;;;;-143.04;100.00;61139.28;5027053;28;20079;-82
2023/03/10 05:08:42;;;;;;;4.22;2.20;;;;;;;-143.04;100.00;61139.28;5025055;28;20095;-82
2023/03/10 05:11:09;;;;;;;2.67;2.10;;;;;;;-143.04;100.00;61139.28;5017924;28;20045;-82
2023/03/10 05:13:35;;;;;;;5.15;2.08;;;;;;;-143.04;100.00;61139.28;5027191;28;20025;-82
2023/03/10 05:16:01;;;;;;;3.28;1.83;;;;;;;-143.04;100.00;61139.28;5025647;28;20394;-82
2023/03/10 05:18:26;;;;;;;3.63;2.10;;;;;;;-143.04;100.00;61139.28;5026467;28;20044;-82
2023/03/10 05:20:57;;;;;;;3.67;2.05;;;;;;;-143.04;100.00;61139.28;5024593;28;20056;-82
2023/03/10 05:23:23;;;;;;;3.20;1.75;;;;;;;-143.04;100.00;61139.28;5024784;28;20100;-82
2023/03/10 05:25:49;;;;;;;3.22;1.95;;;;;;;-143.04;100.00;61139.28;5026164;28;20044;-82
2023/03/10 05:28:16;;;;;;;6.28;1.73;;;;;;;-143.04;100.00;61139.28;5025824;28;20029;-82
2023/03/10 05:30:41;;;;;;;4.43;1.70;;;;;;;-143.04;100.00;61139.28;5024228;28;20041;-82
2023/03/10 05:33:07;;;;;;;3.25;1.60;;;;;;;-143.04;100.00;61139.28;5022685;28;20041;-82
2023/03/10 05:35:32;;;;;;;2.75;1.67;;;;;;;-143.04;100.00;61139.28;5022869;28;20037;-82
2023/03/10 05:37:58;;;;;;;3.42;1.50;;;;;;;-143.04;100.00;61139.28;5023074;28;20041;-81
2023/03/10 05:40:24;;;;;;;3.25;1.45;;;;;;;-143.04;100.00;61139.28;5023812;28;20354;-82
2023/03/10 05:42:50;;;;;;;3.92;1.60;;;;;;;-143.04;100.00;61139.28;5022587;28;20034;-81
2023/03/10 05:45:16;;;;;;;3.10;1.40;;;;;;;-143.04;100.00;61139.28;5019132;28;20037;-82
2023/03/10 05:47:42;;;;;;;4.68;1.40;;;;;;;-143.04;100.00;61139.28;5019323;28;20468;-82
2023/03/10 05:50:10;;;;;;;1.85;1.20;;;;;;;-143.04;100.00;61139.28;5021285;28;20062;-82
2023/03/10 05:52:38;;;;;;;2.17;1.25;;;;;;;-143.04;100.00;61139.28;5021670;28;20127;-82
2023/03/10 05:55:05;;;;;;;2.17;1.13;;;;;;;-143.04;100.00;61139.28;5020296;28;20044;-82
2023/03/10 05:57:30;;;;;;;2.50;1.27;;;;;;;-143.04;100.00;61139.28;5021027;28;20059;-82
2023/03/10 05:59:56;;;;;;;3.67;1.23;;;;;;;-143.04;100.00;61139.28;5025941;28;20141;-81
2023/03/10 06:02:21;;;;;;;3.10;1.25;;;;;;;-143.04;100.00;61139.28;5025037;28;20037;-82
2023/03/10 06:04:47;;;;;;;1.30;1.15;;;;;;;-143.04;100.00;61139.28;5026570;28;20033;-82
2023/03/10 06:07:12;;;;;;;1.45;1.08;;;;;;;-143.04;100.00;61139.28;5026556;28;20136;-82
2023/03/10 06:09:38;;;;;;;1.95;1.10;;;;;;;-143.04;100.00;61139.28;5029983;28;20044;-82
2023/03/10 06:12:03;;;;;;;3.72;1.30;;;;;;;-143.04;100.00;61139.28;5024216;28;20112;-82
2023/03/10 06:14:29;;;;;;;1.85;1.13;;;;;;;-143.04;100.00;61139.28;5028360;28;20092;-82
2023/03/10 06:16:56;;;;;;;1.58;1.10;;;;;;;-143.04;100.00;61139.28;5029509;28;20076;-82
2023/03/10 06:19:22;;;;;;;2.47;1.50;;;;;;;-143.04;100.00;61139.28;5024787;28;20037;-82
2023/03/10 06:21:48;;;;;;;2.83;1.25;;;;;;;-143.04;100.00;61139.28;5027649;28;20029;-82
2023/03/10 06:24:15;;;;;;;2.35;1.50;;;;;;;-143.04;100.00;61139.28;5026821;28;20144;-82
2023/03/10 06:26:41;;;;;;;2.85;1.33;;;;;;;-143.04;100.00;61139.28;5026528;28;20036;-82
2023/03/10 06:29:07;;;;;;;2.95;1.52;;;;;;;-143.04;100.00;61139.28;5025292;28;20025;-82
2023/03/10 06:31:32;;;;;;;3.05;1.52;;;;;;;-143.04;100.00;61139.28;5018548;28;20030;-82
2023/03/10 06:35:00;;;;;;;2.65;1.50;;;;;;;9.54;83.71;95859.31;5043617;28;20888;-81
2023/03/10 06:37:26;;;;;;;2.22;1.40;;;;;;;9.59;83.73;95857.53;5029427;28;20073;-82
2023/03/10 06:39:52;;;;;;;4.00;1.40;;;;;;;9.62;83.57;95859.66;5031463;28;20046;-82
2023/03/10 06:42:18;;;;;;;2.45;1.73;;;;;;;9.64;83.60;95865.44;5030503;28;20068;-81
2023/03/10 06:44:43;;;;;;;2.53;1.30;;;;;;;9.70;83.67;95868.09;5027992;28;20030;-82
2023/03/10 06:47:09;;;;;;;1.92;1.20;;;;;;;9.72;83.48;95866.81;5030669;28;20037;-81
2023/03/10 06:49:34;;;;;;;4.28;1.40;;;;;;;9.75;83.41;95858.47;5029912;28;20038;-80
2023/03/10 06:51:59;;;;;;;4.35;1.75;;;;;;;9.73;83.42;95847.47;5031719;28;20041;-82
2023/03/10 06:54:25;;;;;;;5.72;1.63;;;;;;;9.72;83.44;95866.81;5028846;28;20048;-82
2023/03/10 06:56:51;;;;;;;1.55;1.30;;;;;;;9.74;83.36;95869.97;5027748;28;20651;-82
2023/03/10 06:59:17;;;;;;;3.00;1.67;;;;;;;9.73;83.89;95865.78;5022493;28;20038;-82
2023/03/10 07:01:43;;;;;;;3.50;1.50;;;;;;;9.69;83.84;95862.06;5026018;28;20064;-80
2023/03/10 07:04:11;;;;;;;3.33;1.60;;;;;;;9.68;84.23;95855.25;5025390;28;20036;-82
2023/03/10 07:06:37;;;;;;;3.70;1.50;;;;;;;9.71;84.28;95846.91;5022771;28;20039;-82
2023/03/10 07:09:04;;;;;;;2.95;1.70;;;;;;;9.73;84.31;95850.09;5027921;28;20382;-82
2023/03/10 07:11:30;;;;;;;3.53;1.00;;;;;;;9.81;83.89;95857.47;5010303;28;20069;-81
2023/03/10 07:13:57;;;;;;;1.95;1.15;;;;;;;9.82;83.62;95859.03;5025392;28;20124;-82
2023/03/10 07:16:23;;;;;;;1.42;1.00;;;;;;;9.91;83.80;95860.19;5026871;28;20030;-82
2023/03/10 07:18:49;;;;;;;3.10;1.10;;;;;;;9.99;83.62;95855.53;5027835;28;20580;-82
2023/03/10 07:21:19;;;;;;;1.30;1.20;;;;;;;10.14;83.26;95850.41;5026568;28;20540;-82
2023/03/10 07:23:45;;;;;;;1.48;0.98;;;;;;;10.22;82.69;95860.41;5027885;28;20025;-82
2023/03/10 07:26:14;;;;;;;3.33;1.20;;;;;;;10.34;82.16;95855.03;5028014;28;20148;-82
2023/03/10 07:28:40;;;;;;;1.95;1.00;;;;;;;10.32;82.26;95844.81;5024785;28;20136;-82
2023/03/10 07:31:09;;;;;;;2.70;1.02;;;;;;;10.39;82.00;95844.59;5028025;28;20529;-82
2023/03/10 07:33:36;;;;;;;1.20;0.88;;;;;;;10.39;81.77;95853.22;5028345;28;20599;-82
2023/03/10 07:36:10;;;;;;;1.98;1.00;;;;;;;10.24;81.62;95845.25;5027847;28;20671;-82
2023/03/10 07:38:35;;;;;;;1.20;0.93;;;;;;;10.22;81.94;95841.28;5029604;28;20129;-82
2023/03/10 07:41:10;;;;;;;1.83;0.98;;;;;;;10.29;82.04;95840.06;5022632;28;20042;-82
2023/03/10 07:43:36;;;;;;;3.38;1.77;;;;;;;10.37;81.83;95839.56;5030936;28;20030;-82
2023/03/10 07:46:12;;;;;;;1.05;0.77;;;;;;;10.42;81.72;95839.59;5016279;28;20042;-82
2023/03/10 07:48:38;;;;;;;1.52;0.80;;;;;;;10.50;81.28;95829.72;5014391;28;20029;-82
2023/03/10 07:51:05;;;;;;;1.35;0.90;;;;;;;10.56;80.44;95832.09;5016130;28;20359;-82
2023/03/10 07:53:30;;;;;;;1.80;0.80;;;;;;;10.54;80.00;95833.38;5019641;28;20041;-82
2023/03/10 07:55:56;;;;;;;1.85;1.17;;;;;;;10.58;80.28;95835.25;5012803;28;20041;-83
2023/03/10 07:58:23;;;;;;;1.50;1.00;;;;;;;10.66;80.20;95834.75;5013571;28;20053;-83
2023/03/10 08:00:58;;;;;;;0.82;0.80;;;;;;;10.73;80.21;95829.28;5012582;28;20482;-82
2023/03/10 08:03:26;;;;;;;1.95;1.05;;;;;;;10.81;80.19;95831.44;5013252;28;20033;-83
2023/03/10 08:05:51;;;;;;;1.23;0.90;;;;;;;10.81;79.81;95825.41;5008640;28;20037;-82
2023/03/10 08:08:17;;;;;;;2.10;1.10;;;;;;;10.96;79.66;95838.56;5010531;28;20117;-82
2023/03/10 08:10:43;;;;;;;2.53;0.90;;;;;;;10.94;79.24;95830.97;5009602;28;20038;-82
2023/03/10 08:13:09;;;;;;;1.75;0.90;;;;;;;10.99;79.03;95838.84;5006835;28;20048;-81
2023/03/10 08:15:38;;;;;;;1.38;0.93;;;;;;;11.15;78.93;95831.81;5013961;28;20391;-82
2023/03/10 08:18:06;;;;;;;0.85;0.80;;;;;;;11.33;77.97;95841.03;5012375;28;20045;-81
2023/03/10 08:20:35;;;;;;;2.20;1.75;;;;;;;11.33;78.37;95840.25;5013426;28;20042;-82
2023/03/10 08:23:00;;;;;;;2.40;0.98;;;;;;;11.21;78.13;95836.00;5020285;28;20045;-81
2023/03/10 08:25:26;;;;;;;1.33;1.20;;;;;;;11.15;78.21;95831.81;5013715;28;20512;-82
2023/03/10 08:27:52;;;;;;;1.50;0.90;;;;;;;11.18;78.20;95846.25;5013696;28;20554;-82
2023/03/10 08:30:17;;;;;;;0.80;0.80;;;;;;;11.01;77.93;95845.66;5013658;28;20448;-80
2023/03/10 08:32:43;;;;;;;2.30;1.70;;;;;;;11.01;78.21;95850.91;5014746;28;20413;-81
2023/03/10 08:35:09;;;;;;;0.90;0.90;;;;;;;11.19;78.30;95843.38;5012965;28;20117;-81
2023/03/10 08:37:34;;;;;;;1.73;0.80;;;;;;;11.27;77.18;95826.31;5011132;28;20076;-80
2023/03/10 08:40:00;;;;;;;2.35;1.20;;;;;;;11.45;77.19;95836.34;5014367;28;20061;-80
2023/03/10 08:42:26;;;;;;;1.10;0.88;;;;;;;11.53;76.90;95829.81;5013866;28;20030;-81
2023/03/10 08:44:55;;;;;;;1.38;1.27;;;;;;;11.74;76.60;95838.47;5017341;28;20053;-80
2023/03/10 08:47:22;;;;;;;1.70;1.15;;;;;;;11.97;76.08;95831.97;5014456;28;20048;-81
2023/03/10 08:49:48;;;;;;;2.13;0.88;;;;;;;11.97;74.75;95835.38;5013766;28;20042;-80
2023/03/10 08:52:13;;;;;;;1.15;1.05;;;;;;;11.87;74.76;95834.56;5012804;28;20096;-81
2023/03/10 08:54:39;;;;;;;1.83;0.93;;;;;;;11.86;75.09;95838.25;5009574;28;20034;-80
2023/03/10 08:57:04;;;;;;;3.20;1.00;;;;;;;11.98;75.32;95836.94;5008151;28;20045;-80
2023/03/10 08:59:30;;;;;;;1.38;0.90;;;;;;;11.89;74.40;95835.91;5007689;28;20042;-81
2023/03/10 09:01:55;;;;;;;1.67;0.93;;;;;;;11.85;75.18;95840.09;5008703;28;20559;-81
2023/03/10 09:04:21;;;;;;;1.63;0.90;;;;;;;11.72;75.76;95845.84;5009398;28;20034;-81
2023/03/10 09:06:46;;;;;;;0.93;0.68;;;;;;;11.71;77.18;95854.78;5009687;28;20042;-81
2023/03/10 09:09:12;;;;;;;2.55;0.85;;;;;;;11.59;75.12;95834.00;5011155;28;20033;-83
2023/03/10 09:11:40;;;;;;;1.88;0.80;;;;;;;11.67;75.71;95844.00;5009869;28;20087;-80
2023/03/10 09:14:06;;;;;;;2.00;0.77;;;;;;;11.74;75.77;95849.00;5003663;28;20026;-81
2023/03/10 09:16:32;;;;;;;0.80;0.60;;;;;;;11.57;74.61;95843.19;5012377;28;20045;-81
2023/03/10 09:19:00;;;;;;;1.00;0.70;;;;;;;11.82;76.59;95850.34;5014277;28;20049;-81
2023/03/10 09:21:28;;;;;;;2.30;0.85;;;;;;;11.81;76.81;95844.28;5012823;28;20037;-81
2023/03/10 09:23:53;;;;;;;1.30;0.70;;;;;;;11.87;75.17;95853.75;5011831;28;20053;-81
2023/03/10 09:26:20;;;;;;;0.73;0.70;;;;;;;11.77;75.77;95848.47;5012640;28;20385;-81
2023/03/10 09:28:48;;;;;;;1.85;0.90;;;;;;;11.68;76.26;95855.28;5013276;28;20053;-81
2023/03/10 09:31:19;;;;;;;0.30;0.30;;;;;;;11.62;76.74;95851.06;5013369;28;20101;-80
2023/03/10 09:33:45;;;;;;;0.90;0.70;;;;;;;11.74;76.57;95849.00;5012112;28;20045;-81
2023/03/10 09:36:11;;;;;;;2.10;0.80;;;;;;;11.77;77.24;95838.75;5012905;28;20033;-81
2023/03/10 09:38:36;;;;;;;0.80;0.80;;;;;;;12.03;77.67;95836.94;5014174;28;20041;-81
2023/03/10 09:41:48;;;;;;;1.55;1.15;;;;;;;11.73;76.27;95837.69;5015139;28;20511;-81
2023/03/10 09:44:25;;;;;;;1.13;0.77;;;;;;;11.74;77.56;95822.72;5014641;28;20615;-81
2023/03/10 09:47:45;;;;;;;1.42;0.85;;;;;;;12.01;78.53;95819.88;5012928;28;20038;-80
2023/03/10 09:50:32;;;;;;;0.80;0.60;;;;;;;12.39;76.34;95817.72;5013154;28;20040;-81
2023/03/10 09:53:35;;;;;;;1.33;0.70;;;;;;;12.58;75.70;95811.63;5007891;28;20564;-81
2023/03/10 09:56:11;;;;;;;1.10;0.65;;;;;;;12.43;74.46;95793.28;5009629;28;20057;-81
2023/03/10 09:58:47;;;;;;;1.55;0.80;;;;;;;12.63;73.20;95812.69;5008295;28;20041;-81
2023/03/10 10:01:24;;;;;;;1.23;0.55;;;;;;;12.47;72.16;95807.44;5012454;28;20133;-81
2023/03/10 10:03:59;;;;;;;1.30;0.68;;;;;;;12.43;72.94;95797.75;5010655;28;20118;-82
2023/03/10 10:06:47;;;;;;;0.93;0.80;;;;;;;12.63;72.82;95787.16;5010567;28;20032;-82
2023/03/10 10:09:24;;;;;;;0.60;0.60;;;;;;;12.80;72.84;95786.84;5010994;28;20045;-83
2023/03/10 10:11:49;;;;;;;1.50;0.80;;;;;;;12.67;70.81;95779.53;5010759;28;20096;-81
2023/03/10 10:14:24;;;;;;;0.75;0.65;;;;;;;12.40;71.71;95778.03;5001919;28;20042;-81
2023/03/10 10:17:24;;;;;;;0.95;0.75;;;;;;;12.39;73.02;95775.66;5011747;28;20068;-81
2023/03/10 10:19:51;;;;;;;0.80;0.70;;;;;;;12.38;73.41;95780.16;5011807;28;20068;-82
2023/03/10 10:22:25;;;;;;;0.98;0.47;;;;;;;12.09;73.89;95793.06;5011631;28;20041;-82
2023/03/10 10:25:11;;;;;;;0.70;0.50;;;;;;;11.51;76.24;95818.75;5011823;28;20061;-82
2023/03/10 10:27:40;;;;;;;3.70;0.90;;;;;;;11.06;79.32;95833.34;5007507;28;20584;-83
2023/03/10 10:30:37;;;;;;;1.40;0.60;;;;;;;10.72;77.30;95810.13;5009977;28;20038;-83
2023/03/10 10:33:12;;;;;;;2.53;0.50;;;;;;;10.56;78.19;95810.34;5012063;28;20577;-82
2023/03/10 10:35:42;;;;;;;0.50;0.40;;;;;;;10.47;78.92;95824.97;5010889;28;20032;-82
2023/03/10 10:38:31;;;;;;;1.60;0.60;;;;;;;10.42;78.90;95836.97;5012786;28;20500;-83
2023/03/10 10:41:15;;;;;;;1.15;0.45;;;;;;;10.38;79.39;95828.06;5012100;28;20513;-83
2023/03/10 10:43:47;;;;;;;0.50;0.50;;;;;;;10.20;76.81;95838.94;5016559;28;20045;-83
2023/03/10 10:46:22;;;;;;;0.52;0.52;;;;;;;10.10;76.19;95862.41;5011997;28;20567;-83
2023/03/10 10:48:50;;;;;;;0.68;0.52;;;;;;;10.00;75.83;95862.34;5015350;28;20465;-83
2023/03/10 10:51:28;;;;;;;0.65;0.50;;;;;;;9.88;75.37;95852.03;5008774;28;20038;-82
2023/03/10 10:54:01;;;;;;;1.05;0.40;;;;;;;9.81;74.64;95859.31;5012164;28;20059;-83
2023/03/10 10:56:28;;;;;;;0.85;0.45;;;;;;;9.81;75.01;95854.84;5009062;28;20030;-82
2023/03/10 10:59:41;;;;;;;2.05;0.40;;;;;;;9.85;74.76;95861.19;5007889;28;20864;-82
2023/03/10 11:02:33;;;;;;;0.52;0.40;;;;;;;9.89;73.90;95840.50;5010639;28;20049;-82
2023/03/10 11:05:11;;;;;;;1.27;0.52;;;;;;;10.04;73.98;95861.59;5012170;28;20068;-83
2023/03/10 11:07:36;;;;;;;0.57;0.40;;;;;;;10.12;73.84;95865.56;5009001;28;20466;-82
2023/03/10 11:10:13;;;;;;;0.73;0.35;;;;;;;10.21;73.73;95856.22;5011395;28;20060;-83
2023/03/10 11:13:16;;;;;;;2.58;0.45;;;;;;;10.14;72.50;95874.78;5010394;28;20945;-83
2023/03/10 11:16:05;;;;;;;1.00;0.50;;;;;;;10.15;72.59;95865.09;4999602;28;20045;-83
2023/03/10 11:18:40;;;;;;;1.67;0.50;;;;;;;10.30;73.29;95846.88;5008320;28;20045;-82
2023/03/10 11:21:18;;;;;;;1.10;0.50;;;;;;;10.39;71.95;95845.38;5014959;28;20042;-82
2023/03/10 11:24:28;;;;;;;1.63;0.63;;;;;;;10.72;73.47;95849.47;5012766;28;20125;-83
2023/03/10 11:27:07;;;;;;;1.52;0.50;;;;;;;10.70;71.33;95845.53;5011667;28;20112;-82
2023/03/10 11:29:56;;;;;;;0.85;0.70;;;;;;;10.76;70.69;95847.13;5012593;28;20057;-82
2023/03/10 11:32:39;;;;;;;0.50;0.50;;;;;;;10.83;71.44;95834.56;5010627;28;20488;-82